sensor_id;sensor_type;location;lat;lon;timestamp;P1;durP1;ratioP1;P2;durP2;ratioP2
6642;SDS011;3357;48.050;7.800;2022-08-21T00:02:22;6.33;;;1.73;;
6642;SDS011;3357;48.050;7.800;2022-08-21T00:04:48;1.20;;;1.10;;
6642;SDS011;3357;48.050;7.800;2022-08-21T00:07:15;6.50;;;1.60;;
6642;SDS011;3357;48.050;7.800;2022-08-21T00:09:41;1.03;;;0.90;;
6642;SDS011;3357;48.050;7.800;2022-08-21T00:12:07;0.97;;;0.97;;
6642;SDS011;3357;48.050;7.800;2022-08-21T00:14:32;0.90;;;0.90;;
6642;SDS011;3357;48.050;7.800;2022-08-21T00:16:58;2.63;;;1.17;;
6642;SDS011;3357;48.050;7.800;2022-08-21T00:19:24;2.83;;;1.30;;
6642;SDS011;3357;48.050;7.800;2022-08-21T00:21:53;2.30;;;1.10;;
6642;SDS011;3357;48.050;7.800;2022-08-21T00:24:20;1.57;;;1.20;;
6642;SDS011;3357;48.050;7.800;2022-08-21T00:26:46;5.90;;;1.30;;
6642;SDS011;3357;48.050;7.800;2022-08-21T00:29:12;3.13;;;1.20;;
6642;SDS011;3357;48.050;7.800;2022-08-21T00:31:38;3.10;;;1.23;;
6642;SDS011;3357;48.050;7.800;2022-08-21T00:34:04;2.93;;;1.10;;
6642;SDS011;3357;48.050;7.800;2022-08-21T00:36:30;2.13;;;1.10;;
6642;SDS011;3357;48.050;7.800;2022-08-21T00:38:56;7.67;;;1.40;;
6642;SDS011;3357;48.050;7.800;2022-08-21T00:41:22;6.00;;;1.53;;
6642;SDS011;3357;48.050;7.800;2022-08-21T00:43:49;4.93;;;0.90;;
6642;SDS011;3357;48.050;7.800;2022-08-21T00:46:15;4.80;;;1.40;;
6642;SDS011;3357;48.050;7.800;2022-08-21T00:48:41;2.43;;;1.10;;
6642;SDS011;3357;48.050;7.800;2022-08-21T00:51:13;3.90;;;1.17;;
6642;SDS011;3357;48.050;7.800;2022-08-21T00:53:47;4.00;;;1.17;;
6642;SDS011;3357;48.050;7.800;2022-08-21T00:56:12;2.63;;;1.17;;
6642;SDS011;3357;48.050;7.800;2022-08-21T00:58:41;5.83;;;1.03;;
6642;SDS011;3357;48.050;7.800;2022-08-21T01:01:07;4.97;;;1.20;;
6642;SDS011;3357;48.050;7.800;2022-08-21T01:03:33;3.83;;;1.40;;
6642;SDS011;3357;48.050;7.800;2022-08-21T01:05:59;2.30;;;1.30;;
6642;SDS011;3357;48.050;7.800;2022-08-21T01:08:32;1.30;;;1.20;;
6642;SDS011;3357;48.050;7.800;2022-08-21T01:10:58;1.30;;;1.20;;
6642;SDS011;3357;48.050;7.800;2022-08-21T01:13:24;3.20;;;1.77;;
6642;SDS011;3357;48.050;7.800;2022-08-21T01:15:52;1.93;;;1.03;;
6642;SDS011;3357;48.050;7.800;2022-08-21T01:18:20;3.43;;;1.30;;
6642;SDS011;3357;48.050;7.800;2022-08-21T01:20:59;2.20;;;1.17;;
6642;SDS011;3357;48.050;7.800;2022-08-21T01:23:29;1.23;;;1.13;;
6642;SDS011;3357;48.050;7.800;2022-08-21T01:25:55;3.57;;;1.40;;
6642;SDS011;3357;48.050;7.800;2022-08-21T01:28:21;3.03;;;1.10;;
6642;SDS011;3357;48.050;7.800;2022-08-21T01:30:46;2.40;;;1.07;;
6642;SDS011;3357;48.050;7.800;2022-08-21T01:33:12;2.40;;;1.00;;
6642;SDS011;3357;48.050;7.800;2022-08-21T01:35:38;7.20;;;1.33;;
6642;SDS011;3357;48.050;7.800;2022-08-21T01:38:04;2.27;;;1.30;;
6642;SDS011;3357;48.050;7.800;2022-08-21T01:40:30;1.70;;;1.10;;
6642;SDS011;3357;48.050;7.800;2022-08-21T01:43:02;1.40;;;1.30;;
6642;SDS011;3357;48.050;7.800;2022-08-21T01:45:27;4.10;;;0.93;;
6642;SDS011;3357;48.050;7.800;2022-08-21T01:47:53;2.50;;;1.20;;
6642;SDS011;3357;48.050;7.800;2022-08-21T01:50:18;2.70;;;1.17;;
6642;SDS011;3357;48.050;7.800;2022-08-21T01:52:45;1.10;;;1.00;;
6642;SDS011;3357;48.050;7.800;2022-08-21T01:55:11;5.03;;;1.00;;
6642;SDS011;3357;48.050;7.800;2022-08-21T01:57:37;4.73;;;1.30;;
6642;SDS011;3357;48.050;7.800;2022-08-21T02:00:06;1.23;;;0.97;;
6642;SDS011;3357;48.050;7.800;2022-08-21T02:02:34;2.23;;;0.90;;
6642;SDS011;3357;48.050;7.800;2022-08-21T02:05:00;1.13;;;1.00;;
6642;SDS011;3357;48.050;7.800;2022-08-21T02:07:25;2.40;;;1.30;;
6642;SDS011;3357;48.050;7.800;2022-08-21T02:09:50;2.33;;;0.90;;
6642;SDS011;3357;48.050;7.800;2022-08-21T02:12:16;3.50;;;0.80;;
6642;SDS011;3357;48.050;7.800;2022-08-21T02:14:41;3.47;;;1.00;;
6642;SDS011;3357;48.050;7.800;2022-08-21T02:17:06;0.90;;;0.90;;
6642;SDS011;3357;48.050;7.800;2022-08-21T02:19:32;2.67;;;0.80;;
6642;SDS011;3357;48.050;7.800;2022-08-21T02:21:57;0.90;;;0.90;;
6642;SDS011;3357;48.050;7.800;2022-08-21T02:24:22;1.47;;;1.10;;
6642;SDS011;3357;48.050;7.800;2022-08-21T02:26:48;2.50;;;0.90;;
6642;SDS011;3357;48.050;7.800;2022-08-21T02:29:13;3.47;;;1.00;;
6642;SDS011;3357;48.050;7.800;2022-08-21T02:31:39;1.53;;;1.37;;
6642;SDS011;3357;48.050;7.800;2022-08-21T02:34:04;6.23;;;1.37;;
6642;SDS011;3357;48.050;7.800;2022-08-21T02:36:29;1.27;;;1.10;;
6642;SDS011;3357;48.050;7.800;2022-08-21T02:39:04;1.67;;;0.90;;
6642;SDS011;3357;48.050;7.800;2022-08-21T02:41:29;2.33;;;1.20;;
6642;SDS011;3357;48.050;7.800;2022-08-21T02:43:54;4.20;;;1.07;;
6642;SDS011;3357;48.050;7.800;2022-08-21T02:46:20;4.13;;;1.20;;
6642;SDS011;3357;48.050;7.800;2022-08-21T02:48:46;4.67;;;1.70;;
6642;SDS011;3357;48.050;7.800;2022-08-21T02:51:13;1.23;;;1.10;;
6642;SDS011;3357;48.050;7.800;2022-08-21T02:53:42;1.83;;;1.27;;
6642;SDS011;3357;48.050;7.800;2022-08-21T02:56:09;8.23;;;1.40;;
6642;SDS011;3357;48.050;7.800;2022-08-21T02:58:39;1.07;;;1.00;;
6642;SDS011;3357;48.050;7.800;2022-08-21T03:01:06;1.77;;;1.10;;
6642;SDS011;3357;48.050;7.800;2022-08-21T03:03:34;9.43;;;2.40;;
6642;SDS011;3357;48.050;7.800;2022-08-21T03:06:01;1.17;;;1.10;;
6642;SDS011;3357;48.050;7.800;2022-08-21T03:08:26;1.27;;;1.17;;
6642;SDS011;3357;48.050;7.800;2022-08-21T03:10:52;1.80;;;1.03;;
6642;SDS011;3357;48.050;7.800;2022-08-21T03:13:19;2.27;;;1.10;;
6642;SDS011;3357;48.050;7.800;2022-08-21T03:15:45;2.60;;;1.10;;
6642;SDS011;3357;48.050;7.800;2022-08-21T03:18:11;3.40;;;1.23;;
6642;SDS011;3357;48.050;7.800;2022-08-21T03:20:37;2.50;;;0.90;;
6642;SDS011;3357;48.050;7.800;2022-08-21T03:23:05;2.37;;;0.93;;
6642;SDS011;3357;48.050;7.800;2022-08-21T03:25:31;2.40;;;0.90;;
6642;SDS011;3357;48.050;7.800;2022-08-21T03:28:00;1.60;;;1.50;;
6642;SDS011;3357;48.050;7.800;2022-08-21T03:30:26;1.83;;;1.10;;
6642;SDS011;3357;48.050;7.800;2022-08-21T03:32:52;2.10;;;1.10;;
6642;SDS011;3357;48.050;7.800;2022-08-21T03:35:18;1.30;;;1.00;;
6642;SDS011;3357;48.050;7.800;2022-08-21T03:37:44;0.77;;;0.77;;
6642;SDS011;3357;48.050;7.800;2022-08-21T03:40:10;7.90;;;0.90;;
6642;SDS011;3357;48.050;7.800;2022-08-21T03:42:36;0.77;;;0.77;;
6642;SDS011;3357;48.050;7.800;2022-08-21T03:45:02;1.13;;;0.90;;
6642;SDS011;3357;48.050;7.800;2022-08-21T03:47:28;0.87;;;0.87;;
6642;SDS011;3357;48.050;7.800;2022-08-21T03:49:53;0.90;;;0.90;;
6642;SDS011;3357;48.050;7.800;2022-08-21T03:52:19;1.93;;;0.90;;
6642;SDS011;3357;48.050;7.800;2022-08-21T03:54:47;1.93;;;1.00;;
6642;SDS011;3357;48.050;7.800;2022-08-21T03:57:12;1.20;;;1.07;;
6642;SDS011;3357;48.050;7.800;2022-08-21T03:59:38;1.03;;;1.03;;
6642;SDS011;3357;48.050;7.800;2022-08-21T04:02:04;8.90;;;1.00;;
6642;SDS011;3357;48.050;7.800;2022-08-21T04:04:31;0.70;;;0.70;;
6642;SDS011;3357;48.050;7.800;2022-08-21T04:06:56;1.27;;;0.97;;
6642;SDS011;3357;48.050;7.800;2022-08-21T04:09:22;1.53;;;1.00;;
6642;SDS011;3357;48.050;7.800;2022-08-21T04:11:48;2.87;;;1.43;;
6642;SDS011;3357;48.050;7.800;2022-08-21T04:14:14;3.10;;;1.37;;
6642;SDS011;3357;48.050;7.800;2022-08-21T04:16:41;3.20;;;1.40;;
6642;SDS011;3357;48.050;7.800;2022-08-21T04:19:07;1.17;;;1.10;;
6642;SDS011;3357;48.050;7.800;2022-08-21T04:21:33;2.00;;;1.20;;
6642;SDS011;3357;48.050;7.800;2022-08-21T04:23:59;3.73;;;1.30;;
6642;SDS011;3357;48.050;7.800;2022-08-21T04:26:25;1.00;;;1.00;;
6642;SDS011;3357;48.050;7.800;2022-08-21T04:28:55;1.30;;;1.20;;
6642;SDS011;3357;48.050;7.800;2022-08-21T04:31:22;2.53;;;1.50;;
6642;SDS011;3357;48.050;7.800;2022-08-21T04:33:47;3.23;;;1.40;;
6642;SDS011;3357;48.050;7.800;2022-08-21T04:36:13;2.53;;;1.00;;
6642;SDS011;3357;48.050;7.800;2022-08-21T04:41:06;3.90;;;1.00;;
6642;SDS011;3357;48.050;7.800;2022-08-21T04:43:32;1.83;;;0.93;;
6642;SDS011;3357;48.050;7.800;2022-08-21T04:45:57;2.50;;;1.00;;
6642;SDS011;3357;48.050;7.800;2022-08-21T04:48:25;4.80;;;1.10;;
6642;SDS011;3357;48.050;7.800;2022-08-21T04:51:00;1.10;;;1.10;;
6642;SDS011;3357;48.050;7.800;2022-08-21T04:53:45;1.23;;;0.80;;
6642;SDS011;3357;48.050;7.800;2022-08-21T04:56:18;1.33;;;0.90;;
6642;SDS011;3357;48.050;7.800;2022-08-21T04:58:46;0.93;;;0.93;;
6642;SDS011;3357;48.050;7.800;2022-08-21T05:01:19;3.20;;;1.40;;
6642;SDS011;3357;48.050;7.800;2022-08-21T05:03:47;3.90;;;1.20;;
6642;SDS011;3357;48.050;7.800;2022-08-21T05:06:14;0.97;;;0.97;;
6642;SDS011;3357;48.050;7.800;2022-08-21T05:08:40;2.60;;;1.00;;
6642;SDS011;3357;48.050;7.800;2022-08-21T05:11:06;4.93;;;1.00;;
6642;SDS011;3357;48.050;7.800;2022-08-21T05:13:31;5.07;;;1.13;;
6642;SDS011;3357;48.050;7.800;2022-08-21T05:15:59;5.37;;;1.60;;
6642;SDS011;3357;48.050;7.800;2022-08-21T05:18:24;6.77;;;2.30;;
6642;SDS011;3357;48.050;7.800;2022-08-21T05:20:50;2.63;;;1.30;;
6642;SDS011;3357;48.050;7.800;2022-08-21T05:23:15;2.70;;;1.17;;
6642;SDS011;3357;48.050;7.800;2022-08-21T05:28:10;1.07;;;1.07;;
6642;SDS011;3357;48.050;7.800;2022-08-21T05:30:36;5.60;;;1.30;;
6642;SDS011;3357;48.050;7.800;2022-08-21T05:33:02;1.20;;;1.10;;
6642;SDS011;3357;48.050;7.800;2022-08-21T05:35:29;1.33;;;1.23;;
6642;SDS011;3357;48.050;7.800;2022-08-21T05:37:55;2.60;;;1.10;;
6642;SDS011;3357;48.050;7.800;2022-08-21T05:40:20;3.63;;;1.20;;
6642;SDS011;3357;48.050;7.800;2022-08-21T05:42:46;1.80;;;1.20;;
6642;SDS011;3357;48.050;7.800;2022-08-21T05:45:12;1.27;;;1.20;;
6642;SDS011;3357;48.050;7.800;2022-08-21T05:47:37;1.23;;;1.13;;
6642;SDS011;3357;48.050;7.800;2022-08-21T05:50:03;1.30;;;1.10;;
6642;SDS011;3357;48.050;7.800;2022-08-21T05:52:28;1.37;;;1.37;;
6642;SDS011;3357;48.050;7.800;2022-08-21T05:54:54;3.87;;;1.20;;
6642;SDS011;3357;48.050;7.800;2022-08-21T05:57:20;4.17;;;1.30;;
6642;SDS011;3357;48.050;7.800;2022-08-21T05:59:46;4.20;;;1.13;;
6642;SDS011;3357;48.050;7.800;2022-08-21T06:02:11;5.60;;;2.23;;
6642;SDS011;3357;48.050;7.800;2022-08-21T06:04:43;5.20;;;1.87;;
6642;SDS011;3357;48.050;7.800;2022-08-21T06:07:08;9.13;;;2.50;;
6642;SDS011;3357;48.050;7.800;2022-08-21T06:09:33;3.60;;;2.17;;
6642;SDS011;3357;48.050;7.800;2022-08-21T06:12:02;2.40;;;1.70;;
6642;SDS011;3357;48.050;7.800;2022-08-21T06:14:29;6.07;;;1.30;;
6642;SDS011;3357;48.050;7.800;2022-08-21T06:17:08;6.53;;;1.30;;
6642;SDS011;3357;48.050;7.800;2022-08-21T06:19:35;3.53;;;1.30;;
6642;SDS011;3357;48.050;7.800;2022-08-21T06:22:00;3.20;;;1.60;;
6642;SDS011;3357;48.050;7.800;2022-08-21T06:24:26;2.60;;;2.10;;
6642;SDS011;3357;48.050;7.800;2022-08-21T06:26:52;6.70;;;1.90;;
6642;SDS011;3357;48.050;7.800;2022-08-21T06:29:18;1.80;;;1.70;;
6642;SDS011;3357;48.050;7.800;2022-08-21T06:31:44;7.93;;;2.00;;
6642;SDS011;3357;48.050;7.800;2022-08-21T06:34:10;2.80;;;2.53;;
6642;SDS011;3357;48.050;7.800;2022-08-21T06:36:36;2.67;;;1.83;;
6642;SDS011;3357;48.050;7.800;2022-08-21T06:39:02;5.60;;;2.20;;
6642;SDS011;3357;48.050;7.800;2022-08-21T06:41:28;3.00;;;2.03;;
6642;SDS011;3357;48.050;7.800;2022-08-21T06:43:54;4.23;;;2.20;;
6642;SDS011;3357;48.050;7.800;2022-08-21T06:46:20;4.47;;;2.10;;
6642;SDS011;3357;48.050;7.800;2022-08-21T06:48:45;3.87;;;1.80;;
6642;SDS011;3357;48.050;7.800;2022-08-21T06:51:17;2.50;;;1.80;;
6642;SDS011;3357;48.050;7.800;2022-08-21T06:53:42;5.97;;;2.27;;
6642;SDS011;3357;48.050;7.800;2022-08-21T06:56:10;3.57;;;2.10;;
6642;SDS011;3357;48.050;7.800;2022-08-21T06:58:35;4.30;;;2.50;;
6642;SDS011;3357;48.050;7.800;2022-08-21T07:01:01;6.93;;;2.33;;
6642;SDS011;3357;48.050;7.800;2022-08-21T07:03:28;4.07;;;2.50;;
6642;SDS011;3357;48.050;7.800;2022-08-21T07:05:59;4.93;;;2.30;;
6642;SDS011;3357;48.050;7.800;2022-08-21T07:08:25;4.67;;;2.17;;
6642;SDS011;3357;48.050;7.800;2022-08-21T07:10:52;3.50;;;2.53;;
6642;SDS011;3357;48.050;7.800;2022-08-21T07:13:18;4.73;;;2.17;;
6642;SDS011;3357;48.050;7.800;2022-08-21T07:15:43;9.33;;;2.77;;
6642;SDS011;3357;48.050;7.800;2022-08-21T07:18:09;2.33;;;1.90;;
6642;SDS011;3357;48.050;7.800;2022-08-21T07:20:35;6.33;;;2.10;;
6642;SDS011;3357;48.050;7.800;2022-08-21T07:23:02;5.20;;;2.50;;
6642;SDS011;3357;48.050;7.800;2022-08-21T07:25:30;3.63;;;2.30;;
6642;SDS011;3357;48.050;7.800;2022-08-21T07:27:56;8.03;;;2.30;;
6642;SDS011;3357;48.050;7.800;2022-08-21T07:30:21;2.90;;;2.23;;
6642;SDS011;3357;48.050;7.800;2022-08-21T07:32:49;5.13;;;2.77;;
6642;SDS011;3357;48.050;7.800;2022-08-21T07:35:15;4.53;;;2.30;;
6642;SDS011;3357;48.050;7.800;2022-08-21T07:37:41;6.40;;;2.00;;
6642;SDS011;3357;48.050;7.800;2022-08-21T07:40:12;3.30;;;2.10;;
6642;SDS011;3357;48.050;7.800;2022-08-21T07:42:40;4.77;;;2.20;;
6642;SDS011;3357;48.050;7.800;2022-08-21T07:45:06;3.13;;;1.53;;
6642;SDS011;3357;48.050;7.800;2022-08-21T07:47:32;3.37;;;1.40;;
6642;SDS011;3357;48.050;7.800;2022-08-21T07:52:26;4.80;;;1.87;;
6642;SDS011;3357;48.050;7.800;2022-08-21T07:54:52;5.40;;;2.07;;
6642;SDS011;3357;48.050;7.800;2022-08-21T07:57:17;2.20;;;1.50;;
6642;SDS011;3357;48.050;7.800;2022-08-21T07:59:43;6.10;;;2.10;;
6642;SDS011;3357;48.050;7.800;2022-08-21T08:02:21;4.00;;;1.70;;
6642;SDS011;3357;48.050;7.800;2022-08-21T08:04:47;5.73;;;1.60;;
6642;SDS011;3357;48.050;7.800;2022-08-21T08:07:13;2.90;;;1.80;;
6642;SDS011;3357;48.050;7.800;2022-08-21T08:09:38;7.97;;;2.03;;
6642;SDS011;3357;48.050;7.800;2022-08-21T08:12:03;4.20;;;1.77;;
6642;SDS011;3357;48.050;7.800;2022-08-21T08:14:29;3.20;;;1.33;;
6642;SDS011;3357;48.050;7.800;2022-08-21T08:16:54;3.33;;;1.70;;
6642;SDS011;3357;48.050;7.800;2022-08-21T08:19:19;1.70;;;1.60;;
6642;SDS011;3357;48.050;7.800;2022-08-21T08:21:46;2.07;;;1.70;;
6642;SDS011;3357;48.050;7.800;2022-08-21T08:24:11;3.57;;;1.43;;
6642;SDS011;3357;48.050;7.800;2022-08-21T08:26:36;4.27;;;1.90;;
6642;SDS011;3357;48.050;7.800;2022-08-21T08:29:02;2.70;;;1.90;;
6642;SDS011;3357;48.050;7.800;2022-08-21T08:31:27;3.97;;;1.97;;
6642;SDS011;3357;48.050;7.800;2022-08-21T08:33:53;3.10;;;1.70;;
6642;SDS011;3357;48.050;7.800;2022-08-21T08:36:18;3.57;;;2.00;;
6642;SDS011;3357;48.050;7.800;2022-08-21T08:38:44;5.23;;;2.00;;
6642;SDS011;3357;48.050;7.800;2022-08-21T08:41:14;3.03;;;1.70;;
6642;SDS011;3357;48.050;7.800;2022-08-21T08:43:43;3.70;;;1.90;;
6642;SDS011;3357;48.050;7.800;2022-08-21T08:46:15;5.37;;;2.30;;
6642;SDS011;3357;48.050;7.800;2022-08-21T08:54:11;4.10;;;1.73;;
6642;SDS011;3357;48.050;7.800;2022-08-21T08:56:40;4.77;;;2.07;;
6642;SDS011;3357;48.050;7.800;2022-08-21T08:59:11;8.63;;;3.30;;
6642;SDS011;3357;48.050;7.800;2022-08-21T09:01:48;3.20;;;2.10;;
6642;SDS011;3357;48.050;7.800;2022-08-21T09:04:17;4.23;;;1.87;;
6642;SDS011;3357;48.050;7.800;2022-08-21T09:06:54;5.13;;;1.80;;
6642;SDS011;3357;48.050;7.800;2022-08-21T09:09:34;4.23;;;2.07;;
6642;SDS011;3357;48.050;7.800;2022-08-21T09:12:15;3.07;;;1.60;;
6642;SDS011;3357;48.050;7.800;2022-08-21T09:14:52;6.97;;;2.20;;
6642;SDS011;3357;48.050;7.800;2022-08-21T09:20:03;2.93;;;2.20;;
6642;SDS011;3357;48.050;7.800;2022-08-21T09:22:42;8.60;;;1.93;;
6642;SDS011;3357;48.050;7.800;2022-08-21T09:25:20;7.50;;;3.00;;
6642;SDS011;3357;48.050;7.800;2022-08-21T09:27:48;3.67;;;1.93;;
6642;SDS011;3357;48.050;7.800;2022-08-21T09:30:14;5.40;;;2.33;;
6642;SDS011;3357;48.050;7.800;2022-08-21T09:32:40;2.43;;;1.67;;
6642;SDS011;3357;48.050;7.800;2022-08-21T09:35:11;2.40;;;2.20;;
6642;SDS011;3357;48.050;7.800;2022-08-21T09:37:50;2.27;;;2.07;;
6642;SDS011;3357;48.050;7.800;2022-08-21T09:40:41;6.00;;;2.20;;
6642;SDS011;3357;48.050;7.800;2022-08-21T09:45:42;5.33;;;2.10;;
6642;SDS011;3357;48.050;7.800;2022-08-21T09:48:09;5.20;;;2.23;;
6642;SDS011;3357;48.050;7.800;2022-08-21T09:50:47;5.77;;;2.33;;
6642;SDS011;3357;48.050;7.800;2022-08-21T09:53:22;4.13;;;2.00;;
6642;SDS011;3357;48.050;7.800;2022-08-21T09:55:57;3.70;;;2.13;;
6642;SDS011;3357;48.050;7.800;2022-08-21T09:58:45;4.23;;;2.13;;
6642;SDS011;3357;48.050;7.800;2022-08-21T10:01:15;4.47;;;2.07;;
6642;SDS011;3357;48.050;7.800;2022-08-21T10:03:48;10.80;;;2.57;;
6642;SDS011;3357;48.050;7.800;2022-08-21T10:06:24;4.83;;;1.97;;
6642;SDS011;3357;48.050;7.800;2022-08-21T10:09:02;5.17;;;1.80;;
6642;SDS011;3357;48.050;7.800;2022-08-21T10:11:33;4.50;;;1.93;;
6642;SDS011;3357;48.050;7.800;2022-08-21T10:16:35;7.67;;;2.27;;
6642;SDS011;3357;48.050;7.800;2022-08-21T10:41:24;4.47;;;2.10;;
6642;SDS011;3357;48.050;7.800;2022-08-21T11:00:11;3.83;;;1.40;;
6642;SDS011;3357;48.050;7.800;2022-08-21T11:05:24;3.27;;;1.73;;
6642;SDS011;3357;48.050;7.800;2022-08-21T11:07:57;2.20;;;1.27;;
6642;SDS011;3357;48.050;7.800;2022-08-21T11:10:28;3.57;;;1.20;;
6642;SDS011;3357;48.050;7.800;2022-08-21T11:13:04;1.30;;;1.20;;
6642;SDS011;3357;48.050;7.800;2022-08-21T11:18:28;2.03;;;1.20;;
6642;SDS011;3357;48.050;7.800;2022-08-21T11:21:42;3.10;;;1.30;;
6642;SDS011;3357;48.050;7.800;2022-08-21T11:29:35;1.67;;;1.00;;
6642;SDS011;3357;48.050;7.800;2022-08-21T11:45:30;1.23;;;1.10;;
6642;SDS011;3357;48.050;7.800;2022-08-21T11:48:16;4.40;;;1.20;;
6642;SDS011;3357;48.050;7.800;2022-08-21T11:50:50;3.00;;;1.20;;
6642;SDS011;3357;48.050;7.800;2022-08-21T11:56:31;6.73;;;1.43;;
6642;SDS011;3357;48.050;7.800;2022-08-21T11:58:41;2.43;;;1.50;;
6642;SDS011;3357;48.050;7.800;2022-08-21T12:01:43;2.33;;;1.50;;
6642;SDS011;3357;48.050;7.800;2022-08-21T12:04:08;4.63;;;1.30;;
6642;SDS011;3357;48.050;7.800;2022-08-21T12:06:42;1.50;;;1.00;;
6642;SDS011;3357;48.050;7.800;2022-08-21T12:09:28;3.73;;;1.90;;
6642;SDS011;3357;48.050;7.800;2022-08-21T12:12:39;2.90;;;1.50;;
6642;SDS011;3357;48.050;7.800;2022-08-21T12:15:04;2.77;;;1.30;;
6642;SDS011;3357;48.050;7.800;2022-08-21T12:26:03;7.10;;;1.23;;
6642;SDS011;3357;48.050;7.800;2022-08-21T12:28:39;3.13;;;1.40;;
6642;SDS011;3357;48.050;7.800;2022-08-21T12:31:16;3.27;;;1.13;;
6642;SDS011;3357;48.050;7.800;2022-08-21T12:33:51;2.83;;;1.40;;
6642;SDS011;3357;48.050;7.800;2022-08-21T12:36:21;2.00;;;1.00;;
6642;SDS011;3357;48.050;7.800;2022-08-21T12:41:33;3.23;;;1.60;;
6642;SDS011;3357;48.050;7.800;2022-08-21T12:47:05;1.43;;;1.20;;
6642;SDS011;3357;48.050;7.800;2022-08-21T12:49:37;2.80;;;1.50;;
6642;SDS011;3357;48.050;7.800;2022-08-21T12:52:54;1.87;;;1.40;;
6642;SDS011;3357;48.050;7.800;2022-08-21T12:55:04;1.70;;;1.40;;
6642;SDS011;3357;48.050;7.800;2022-08-21T12:57:29;3.57;;;1.30;;
6642;SDS011;3357;48.050;7.800;2022-08-21T12:59:56;3.40;;;1.30;;
6642;SDS011;3357;48.050;7.800;2022-08-21T13:02:25;5.10;;;1.30;;
6642;SDS011;3357;48.050;7.800;2022-08-21T13:04:55;2.97;;;1.50;;
6642;SDS011;3357;48.050;7.800;2022-08-21T13:07:24;3.70;;;1.27;;
6642;SDS011;3357;48.050;7.800;2022-08-21T13:12:31;2.90;;;1.30;;
6642;SDS011;3357;48.050;7.800;2022-08-21T13:14:59;1.90;;;1.20;;
6642;SDS011;3357;48.050;7.800;2022-08-21T13:17:27;2.47;;;1.20;;
6642;SDS011;3357;48.050;7.800;2022-08-21T13:20:01;2.93;;;1.27;;
6642;SDS011;3357;48.050;7.800;2022-08-21T13:22:28;1.87;;;1.40;;
6642;SDS011;3357;48.050;7.800;2022-08-21T13:24:53;1.33;;;1.23;;
6642;SDS011;3357;48.050;7.800;2022-08-21T13:27:24;12.67;;;2.10;;
6642;SDS011;3357;48.050;7.800;2022-08-21T13:30:05;1.50;;;1.30;;
6642;SDS011;3357;48.050;7.800;2022-08-21T13:32:40;1.40;;;1.20;;
6642;SDS011;3357;48.050;7.800;2022-08-21T13:35:12;1.90;;;1.50;;
6642;SDS011;3357;48.050;7.800;2022-08-21T13:37:43;2.17;;;1.33;;
6642;SDS011;3357;48.050;7.800;2022-08-21T13:40:11;1.73;;;1.33;;
6642;SDS011;3357;48.050;7.800;2022-08-21T13:42:40;3.47;;;1.37;;
6642;SDS011;3357;48.050;7.800;2022-08-21T13:45:11;1.70;;;1.33;;
6642;SDS011;3357;48.050;7.800;2022-08-21T13:47:39;2.07;;;1.23;;
6642;SDS011;3357;48.050;7.800;2022-08-21T13:50:04;2.93;;;1.70;;
6642;SDS011;3357;48.050;7.800;2022-08-21T13:52:32;3.27;;;1.50;;
6642;SDS011;3357;48.050;7.800;2022-08-21T13:54:59;3.23;;;1.70;;
6642;SDS011;3357;48.050;7.800;2022-08-21T13:59:53;1.77;;;1.50;;
6642;SDS011;3357;48.050;7.800;2022-08-21T14:02:45;2.33;;;1.30;;
6642;SDS011;3357;48.050;7.800;2022-08-21T14:05:25;1.83;;;1.33;;
6642;SDS011;3357;48.050;7.800;2022-08-21T14:07:55;3.17;;;1.20;;
6642;SDS011;3357;48.050;7.800;2022-08-21T14:10:30;2.83;;;1.47;;
6642;SDS011;3357;48.050;7.800;2022-08-21T14:13:03;3.80;;;1.63;;
6642;SDS011;3357;48.050;7.800;2022-08-21T14:15:31;3.60;;;1.40;;
6642;SDS011;3357;48.050;7.800;2022-08-21T14:20:43;2.33;;;1.30;;
6642;SDS011;3357;48.050;7.800;2022-08-21T14:23:09;1.40;;;1.30;;
6642;SDS011;3357;48.050;7.800;2022-08-21T14:25:41;2.70;;;1.30;;
6642;SDS011;3357;48.050;7.800;2022-08-21T14:30:53;1.53;;;1.27;;
6642;SDS011;3357;48.050;7.800;2022-08-21T14:35:54;2.27;;;1.10;;
6642;SDS011;3357;48.050;7.800;2022-08-21T14:38:21;1.73;;;1.40;;
6642;SDS011;3357;48.050;7.800;2022-08-21T14:40:52;1.50;;;1.30;;
6642;SDS011;3357;48.050;7.800;2022-08-21T14:43:19;3.27;;;1.50;;
6642;SDS011;3357;48.050;7.800;2022-08-21T14:45:45;2.43;;;1.17;;
6642;SDS011;3357;48.050;7.800;2022-08-21T14:48:11;3.37;;;1.20;;
6642;SDS011;3357;48.050;7.800;2022-08-21T14:50:36;2.30;;;1.43;;
6642;SDS011;3357;48.050;7.800;2022-08-21T14:53:02;4.07;;;1.30;;
6642;SDS011;3357;48.050;7.800;2022-08-21T14:55:28;4.53;;;1.97;;
6642;SDS011;3357;48.050;7.800;2022-08-21T14:57:55;1.70;;;1.00;;
6642;SDS011;3357;48.050;7.800;2022-08-21T15:00:22;2.30;;;1.30;;
6642;SDS011;3357;48.050;7.800;2022-08-21T15:02:51;5.10;;;1.43;;
6642;SDS011;3357;48.050;7.800;2022-08-21T15:05:18;2.27;;;1.30;;
6642;SDS011;3357;48.050;7.800;2022-08-21T15:07:44;1.60;;;1.33;;
6642;SDS011;3357;48.050;7.800;2022-08-21T15:10:09;7.47;;;1.13;;
6642;SDS011;3357;48.050;7.800;2022-08-21T15:12:37;3.33;;;1.57;;
6642;SDS011;3357;48.050;7.800;2022-08-21T15:15:06;1.90;;;1.10;;
6642;SDS011;3357;48.050;7.800;2022-08-21T15:17:32;4.20;;;1.40;;
6642;SDS011;3357;48.050;7.800;2022-08-21T15:19:58;1.67;;;1.40;;
6642;SDS011;3357;48.050;7.800;2022-08-21T15:22:24;3.63;;;1.17;;
6642;SDS011;3357;48.050;7.800;2022-08-21T15:24:49;4.10;;;1.30;;
6642;SDS011;3357;48.050;7.800;2022-08-21T15:27:18;3.57;;;1.23;;
6642;SDS011;3357;48.050;7.800;2022-08-21T15:29:47;1.97;;;1.20;;
6642;SDS011;3357;48.050;7.800;2022-08-21T15:32:20;2.87;;;1.10;;
6642;SDS011;3357;48.050;7.800;2022-08-21T15:34:48;3.30;;;1.20;;
6642;SDS011;3357;48.050;7.800;2022-08-21T15:37:14;2.30;;;1.60;;
6642;SDS011;3357;48.050;7.800;2022-08-21T15:39:43;4.23;;;1.20;;
6642;SDS011;3357;48.050;7.800;2022-08-21T15:42:15;1.40;;;1.17;;
6642;SDS011;3357;48.050;7.800;2022-08-21T15:44:41;1.70;;;1.30;;
6642;SDS011;3357;48.050;7.800;2022-08-21T15:47:16;4.33;;;3.87;;
6642;SDS011;3357;48.050;7.800;2022-08-21T15:49:45;1.20;;;1.10;;
6642;SDS011;3357;48.050;7.800;2022-08-21T15:52:12;1.23;;;1.13;;
6642;SDS011;3357;48.050;7.800;2022-08-21T15:54:38;2.93;;;1.40;;
6642;SDS011;3357;48.050;7.800;2022-08-21T15:57:04;3.43;;;1.10;;
6642;SDS011;3357;48.050;7.800;2022-08-21T15:59:32;3.70;;;1.57;;
6642;SDS011;3357;48.050;7.800;2022-08-21T16:02:04;1.20;;;1.10;;
6642;SDS011;3357;48.050;7.800;2022-08-21T16:06:59;2.13;;;1.37;;
6642;SDS011;3357;48.050;7.800;2022-08-21T16:09:25;2.23;;;1.10;;
6642;SDS011;3357;48.050;7.800;2022-08-21T16:11:50;2.80;;;1.70;;
6642;SDS011;3357;48.050;7.800;2022-08-21T16:14:16;1.33;;;1.23;;
6642;SDS011;3357;48.050;7.800;2022-08-21T16:16:42;2.07;;;1.27;;
6642;SDS011;3357;48.050;7.800;2022-08-21T16:19:07;1.67;;;1.23;;
6642;SDS011;3357;48.050;7.800;2022-08-21T16:21:34;1.53;;;1.10;;
6642;SDS011;3357;48.050;7.800;2022-08-21T16:24:05;1.97;;;1.10;;
6642;SDS011;3357;48.050;7.800;2022-08-21T16:26:37;1.70;;;1.30;;
6642;SDS011;3357;48.050;7.800;2022-08-21T16:29:04;1.50;;;1.03;;
6642;SDS011;3357;48.050;7.800;2022-08-21T16:31:30;1.50;;;1.20;;
6642;SDS011;3357;48.050;7.800;2022-08-21T16:33:56;1.27;;;1.00;;
6642;SDS011;3357;48.050;7.800;2022-08-21T16:36:22;3.30;;;1.30;;
6642;SDS011;3357;48.050;7.800;2022-08-21T16:38:50;2.03;;;1.30;;
6642;SDS011;3357;48.050;7.800;2022-08-21T16:41:21;1.47;;;1.10;;
6642;SDS011;3357;48.050;7.800;2022-08-21T16:43:48;1.23;;;1.00;;
6642;SDS011;3357;48.050;7.800;2022-08-21T16:46:15;1.30;;;1.20;;
6642;SDS011;3357;48.050;7.800;2022-08-21T16:48:41;1.73;;;1.20;;
6642;SDS011;3357;48.050;7.800;2022-08-21T16:51:09;1.17;;;1.07;;
6642;SDS011;3357;48.050;7.800;2022-08-21T16:53:34;1.23;;;1.10;;
6642;SDS011;3357;48.050;7.800;2022-08-21T16:56:02;1.73;;;1.23;;
6642;SDS011;3357;48.050;7.800;2022-08-21T16:58:31;2.50;;;1.03;;
6642;SDS011;3357;48.050;7.800;2022-08-21T17:00:59;1.87;;;1.17;;
6642;SDS011;3357;48.050;7.800;2022-08-21T17:03:29;1.57;;;1.10;;
6642;SDS011;3357;48.050;7.800;2022-08-21T17:05:58;3.50;;;1.53;;
6642;SDS011;3357;48.050;7.800;2022-08-21T17:08:24;1.73;;;1.23;;
6642;SDS011;3357;48.050;7.800;2022-08-21T17:10:50;1.30;;;1.17;;
6642;SDS011;3357;48.050;7.800;2022-08-21T17:13:15;1.70;;;1.10;;
6642;SDS011;3357;48.050;7.800;2022-08-21T17:15:41;2.47;;;1.50;;
6642;SDS011;3357;48.050;7.800;2022-08-21T17:18:10;2.13;;;1.20;;
6642;SDS011;3357;48.050;7.800;2022-08-21T17:20:38;1.43;;;1.30;;